createdAt,value
2023-02-05T00:03:04.550Z,1.15
2023-02-05T00:08:11.449Z,1.26
2023-02-05T00:13:13.162Z,1.30
2023-02-05T00:18:15.010Z,1.24
2023-02-05T00:23:16.680Z,1.14
2023-02-05T00:28:18.231Z,1.09
2023-02-05T00:33:20.111Z,1.23
2023-02-05T00:38:21.891Z,1.37
2023-02-05T00:43:24.587Z,1.47
2023-02-05T00:48:26.145Z,1.58
2023-02-05T00:53:28.186Z,1.59
2023-02-05T00:58:29.747Z,1.64
2023-02-05T01:03:31.408Z,1.76
2023-02-05T01:08:33.158Z,1.75
2023-02-05T01:13:34.731Z,1.81
2023-02-05T01:18:36.708Z,1.79
2023-02-05T01:23:38.291Z,1.55
2023-02-05T01:28:39.914Z,1.36
2023-02-05T01:33:41.497Z,1.28
2023-02-05T01:38:43.050Z,1.27
2023-02-05T01:44:15.204Z,1.18
2023-02-05T01:49:41.191Z,1.04
2023-02-05T01:54:48.807Z,1.10
2023-02-05T01:59:50.891Z,1.13
2023-02-05T02:04:57.806Z,1.19
2023-02-05T02:09:59.874Z,1.27
2023-02-05T02:15:10.648Z,1.02
2023-02-05T02:20:16.907Z,0.79
2023-02-05T02:25:18.444Z,0.90
2023-02-05T02:30:26.303Z,1.11
2023-02-05T02:35:48.266Z,1.21
2023-02-05T02:40:58.231Z,1.12
2023-02-05T02:46:08.107Z,0.96
2023-02-05T02:51:12.418Z,0.73
2023-02-05T02:56:14.951Z,0.68
2023-02-05T03:01:23.525Z,0.70
2023-02-05T03:06:26.890Z,0.88
2023-02-05T03:11:29.762Z,1.05
2023-02-05T03:16:34.088Z,1.19
2023-02-05T03:21:41.991Z,1.23
2023-02-05T03:26:43.806Z,1.23
2023-02-05T03:32:14.870Z,1.38
2023-02-05T03:37:26.648Z,1.34
2023-02-05T03:42:58.802Z,1.26
2023-02-05T03:48:38.039Z,1.40
2023-02-05T03:53:49.855Z,1.50
2023-02-05T03:58:56.643Z,1.63
2023-02-05T04:04:00.380Z,1.70
2023-02-05T04:09:03.604Z,1.70
2023-02-05T04:14:05.636Z,1.73
2023-02-05T04:19:08.175Z,1.82
2023-02-05T04:24:09.904Z,1.86
2023-02-05T04:29:12.414Z,1.99
2023-02-05T04:34:18.729Z,2.09
2023-02-05T04:39:20.421Z,2.06
2023-02-05T04:44:22.890Z,2.11
2023-02-05T04:49:24.433Z,2.13
2023-02-05T04:54:28.288Z,2.14
2023-02-05T04:59:32.662Z,2.22
2023-02-05T05:04:34.213Z,2.30
2023-02-05T05:09:38.979Z,2.40
2023-02-05T05:14:40.748Z,2.44
2023-02-05T05:19:42.485Z,2.46
2023-02-05T05:24:44.231Z,2.37
2023-02-05T05:29:46.713Z,2.41
2023-02-05T05:34:48.424Z,2.47
2023-02-05T05:40:08.337Z,2.49
2023-02-05T05:45:10.398Z,2.46
2023-02-05T05:50:12.016Z,2.42
2023-02-05T05:55:13.572Z,2.49
2023-02-05T06:00:15.523Z,2.57
2023-02-05T06:05:19.423Z,2.53
2023-02-05T06:10:21.078Z,2.61
2023-02-05T06:15:22.836Z,2.71
2023-02-05T06:20:24.446Z,2.80
2023-02-05T06:25:26.005Z,2.78
2023-02-05T06:30:27.784Z,2.81
2023-02-05T06:35:29.353Z,2.84
2023-02-05T06:40:30.880Z,2.77
2023-02-05T06:45:32.903Z,2.69
2023-02-05T06:50:34.671Z,2.71
2023-02-05T06:55:39.650Z,2.79
2023-02-05T07:00:41.832Z,2.88
2023-02-05T07:05:43.543Z,2.92
2023-02-05T07:10:45.301Z,2.87
2023-02-05T07:15:47.483Z,2.82
2023-02-05T07:20:49.263Z,2.77
2023-02-05T07:25:51.092Z,2.66
2023-02-05T07:30:52.683Z,2.64
2023-02-05T07:35:54.752Z,2.58
2023-02-05T07:40:59.735Z,2.58
2023-02-05T07:46:07.754Z,2.67
2023-02-05T07:51:17.154Z,2.79
2023-02-05T07:56:21.853Z,2.90
2023-02-05T08:01:23.486Z,3.06
2023-02-05T08:06:25.778Z,3.14
2023-02-05T08:11:27.495Z,3.16
2023-02-05T08:16:29.080Z,3.24
2023-02-05T08:21:32.836Z,3.29
2023-02-05T08:26:34.386Z,3.29
2023-02-05T08:31:36.922Z,3.24
2023-02-05T08:36:38.685Z,3.26
2023-02-05T08:41:40.320Z,3.31
2023-02-05T08:46:49.707Z,3.43
2023-02-05T08:51:53.929Z,3.49
2023-02-05T08:56:55.648Z,3.60
2023-02-05T09:01:57.233Z,3.63
2023-02-05T09:06:58.999Z,3.73
2023-02-05T09:12:01.208Z,3.85
2023-02-05T09:17:08.068Z,3.83
2023-02-05T09:22:10.000Z,3.86
2023-02-05T09:27:14.262Z,3.98
2023-02-05T09:32:15.863Z,4.02
2023-02-05T09:37:18.015Z,4.06
2023-02-05T09:43:01.121Z,4.12
2023-02-05T09:48:10.271Z,4.13
2023-02-05T09:53:15.713Z,4.25
2023-02-05T09:58:21.451Z,4.41
2023-02-05T10:03:29.219Z,4.42
2023-02-05T10:08:41.138Z,4.39
2023-02-05T10:13:45.344Z,4.47
2023-02-05T10:18:56.276Z,4.51
2023-02-05T10:24:08.957Z,4.51
2023-02-05T10:29:21.928Z,4.43
2023-02-05T10:34:38.605Z,4.32
2023-02-05T10:39:40.876Z,4.21
2023-02-05T10:44:49.148Z,4.20
2023-02-05T10:50:01.293Z,4.13
2023-02-05T10:55:03.038Z,4.01
2023-02-05T11:00:25.382Z,3.94
2023-02-05T11:05:37.310Z,3.86
2023-02-05T11:10:39.047Z,3.88
2023-02-05T11:15:59.246Z,3.82
2023-02-05T11:21:03.055Z,3.82
2023-02-05T11:26:23.166Z,3.71
2023-02-05T11:31:28.831Z,3.69
2023-02-05T11:36:31.548Z,3.74
2023-02-05T11:41:48.376Z,3.78
2023-02-05T11:46:56.785Z,3.89
2023-02-05T11:51:59.246Z,3.92
2023-02-05T11:57:05.503Z,3.87
2023-02-05T12:02:25.667Z,3.94
2023-02-05T12:07:33.334Z,3.99
2023-02-05T12:12:46.799Z,4.04
2023-02-05T12:17:51.142Z,4.13
2023-02-05T12:23:07.729Z,4.15
2023-02-05T12:28:36.893Z,4.15
2023-02-05T12:34:05.898Z,4.13
2023-02-05T12:39:34.008Z,4.11
2023-02-05T12:44:42.887Z,3.99
2023-02-05T12:49:56.155Z,3.96
2023-02-05T12:55:25.946Z,3.94
2023-02-05T13:00:37.907Z,3.94
2023-02-05T13:05:49.753Z,3.81
2023-02-05T13:11:12.499Z,4.01
2023-02-05T13:16:17.823Z,4.24
2023-02-05T13:21:39.800Z,4.28
2023-02-05T13:27:04.580Z,4.24
2023-02-05T13:32:16.010Z,4.41
2023-02-05T13:37:53.002Z,4.42
2023-02-05T13:43:03.484Z,4.42
2023-02-05T13:48:40.668Z,4.52
2023-02-05T13:54:23.980Z,4.56
2023-02-05T13:59:42.456Z,4.63
2023-02-05T14:04:54.224Z,4.64
2023-02-05T14:10:01.126Z,4.65
2023-02-05T14:15:20.921Z,4.69
2023-02-05T14:20:25.475Z,4.80
2023-02-05T14:25:36.860Z,4.80
2023-02-05T14:30:53.484Z,4.82
2023-02-05T14:36:17.478Z,4.82
2023-02-05T14:41:26.077Z,4.85
2023-02-05T14:46:41.996Z,4.85
2023-02-05T14:51:51.885Z,4.88
2023-02-05T14:57:07.355Z,4.94
2023-02-05T15:02:46.886Z,4.87
2023-02-05T15:07:53.236Z,4.87
2023-02-05T15:13:08.714Z,4.80
2023-02-05T15:18:10.353Z,4.70
2023-02-05T15:23:11.878Z,4.73
2023-02-05T15:28:36.993Z,4.76
2023-02-05T15:34:16.189Z,4.69
2023-02-05T15:39:25.594Z,4.61
2023-02-05T15:44:30.152Z,4.44
2023-02-05T15:49:37.478Z,4.42
2023-02-05T15:54:40.156Z,4.56
2023-02-05T15:59:42.051Z,4.63
2023-02-05T16:04:43.761Z,4.75
2023-02-05T16:09:52.825Z,4.76
2023-02-05T16:15:00.517Z,4.70
2023-02-05T16:20:12.764Z,4.44
2023-02-05T16:25:41.299Z,4.42
2023-02-05T16:30:47.624Z,4.43
2023-02-05T16:35:49.434Z,4.51
2023-02-05T16:40:55.033Z,4.52
2023-02-05T16:46:08.933Z,4.36
2023-02-05T16:51:52.689Z,4.39
2023-02-05T16:57:28.698Z,4.24
2023-02-05T17:02:39.530Z,4.32
2023-02-05T17:07:41.990Z,4.37
2023-02-05T17:12:50.403Z,4.45
2023-02-05T17:17:55.556Z,4.52
2023-02-05T17:23:05.861Z,4.31
2023-02-05T17:28:13.079Z,4.14
2023-02-05T17:33:20.428Z,4.18
2023-02-05T17:38:23.700Z,4.10
2023-02-05T17:43:25.313Z,4.04
2023-02-05T17:48:26.855Z,3.98
2023-02-05T17:53:29.007Z,4.04
2023-02-05T17:58:30.628Z,4.18
2023-02-05T18:03:32.198Z,4.18
2023-02-05T18:08:36.314Z,4.07
2023-02-05T18:13:38.259Z,4.03
2023-02-05T18:18:40.032Z,3.94
2023-02-05T18:23:41.816Z,3.82
2023-02-05T18:28:43.590Z,3.68
2023-02-05T18:33:45.156Z,3.62
2023-02-05T18:38:46.698Z,3.55
2023-02-05T18:43:48.530Z,3.51
2023-02-05T18:48:54.692Z,3.46
2023-02-05T18:53:58.545Z,3.44
2023-02-05T18:59:06.305Z,3.49
2023-02-05T19:04:11.050Z,3.51
2023-02-05T19:09:12.634Z,3.53
2023-02-05T19:14:16.419Z,3.57
2023-02-05T19:19:21.389Z,3.54
2023-02-05T19:24:23.035Z,3.53
2023-02-05T19:29:25.713Z,3.50
2023-02-05T19:34:28.021Z,3.47
2023-02-05T19:39:29.576Z,3.43
2023-02-05T19:44:32.182Z,3.39
2023-02-05T19:49:33.914Z,3.38
2023-02-05T19:54:36.068Z,3.36
2023-02-05T19:59:37.732Z,3.34
2023-02-05T20:04:40.717Z,3.31
2023-02-05T20:09:42.467Z,3.29
2023-02-05T20:14:44.187Z,3.27
2023-02-05T20:19:45.771Z,3.27
2023-02-05T20:24:47.449Z,3.28
2023-02-05T20:30:07.701Z,3.28
2023-02-05T20:35:09.382Z,3.28
2023-02-05T20:40:11.417Z,3.27
2023-02-05T20:45:12.951Z,3.25
2023-02-05T20:50:14.749Z,3.24
2023-02-05T20:55:16.513Z,3.22
2023-02-05T21:00:19.797Z,3.18
2023-02-05T21:05:21.502Z,3.16
2023-02-05T21:10:23.064Z,3.14
2023-02-05T21:15:24.752Z,3.12
2023-02-05T21:20:27.462Z,3.10
2023-02-05T21:25:29.008Z,3.10
2023-02-05T21:30:30.663Z,3.10
2023-02-05T21:35:32.282Z,3.07
2023-02-05T21:40:34.386Z,3.06
2023-02-05T21:45:37.016Z,3.06
2023-02-05T21:50:41.047Z,3.05
2023-02-05T21:55:42.611Z,2.95
2023-02-05T22:00:44.131Z,2.84
2023-02-05T22:05:45.750Z,2.73
2023-02-05T22:10:47.285Z,2.52
2023-02-05T22:15:48.939Z,2.48
2023-02-05T22:20:50.612Z,2.41
2023-02-05T22:25:52.219Z,2.33
2023-02-05T22:31:01.589Z,2.27
2023-02-05T22:36:04.297Z,2.22
2023-02-05T22:41:14.958Z,2.21
2023-02-05T22:46:19.607Z,2.18
2023-02-05T22:51:38.933Z,2.16
2023-02-05T22:56:40.568Z,2.12
2023-02-05T23:01:42.197Z,2.08
2023-02-05T23:06:45.144Z,2.05
2023-02-05T23:11:46.760Z,1.97
2023-02-05T23:16:48.357Z,1.82
2023-02-05T23:21:50.114Z,1.61
2023-02-05T23:26:53.471Z,1.57
2023-02-05T23:31:55.050Z,1.59
2023-02-05T23:36:56.612Z,1.66
2023-02-05T23:41:58.205Z,1.70
2023-02-05T23:46:59.911Z,1.68
2023-02-05T23:52:01.481Z,1.70
2023-02-05T23:57:03.089Z,1.68
